Time;durP1;ratioP1;P1;durP2;ratioP2;P2;SDS_P1;SDS_P2;PMS_P1;PMS_P2;Temp;Humidity;BMP_temperature;BMP_pressure;BME280_temperature;BME280_humidity;BME280_pressure;Samples;Min_cycle;Max_cycle;Signal;HPM_P1;HPM_P2
2022/04/16 00:00:37;;;;;;;;;;;11.70;99.90;;;;;;6150563;23;19921;-80
2022/04/16 00:03:04;;;;;;;;;;;11.60;99.90;;;;;;6151311;23;19921;-81
2022/04/16 00:05:32;;;;;;;;;;;11.50;99.90;;;;;;6152034;23;19924;-80
2022/04/16 00:08:09;;;;;;;;;;;11.50;99.90;;;;;;6139767;23;19927;-80
2022/04/16 00:10:37;;;;;;;;;;;11.40;99.90;;;;;;6142771;23;19924;-81
2022/04/16 00:13:06;;;;;;;;;;;11.30;99.90;;;;;;6125568;23;19921;-79
2022/04/16 00:15:34;;;;;;;;;;;11.30;99.90;;;;;;6127674;23;19921;-80
2022/04/16 00:18:02;;;;;;;;;;;11.50;99.90;;;;;;6115812;23;19925;-79
2022/04/16 00:20:31;;;;;;;;;;;11.30;99.90;;;;;;6125968;23;19932;-80
2022/04/16 00:22:59;;;;;;;;;;;11.20;99.90;;;;;;6115606;23;19921;-80
2022/04/16 00:25:30;;;;;;;;;;;11.20;99.90;;;;;;6140077;23;19928;-78
2022/04/16 00:27:58;;;;;;;;;;;11.20;99.90;;;;;;6142073;23;19932;-80
2022/04/16 00:30:25;;;;;;;;;;;11.10;99.90;;;;;;6142198;23;19931;-81
2022/04/16 00:32:55;;;;;;;;;;;11.20;99.90;;;;;;6092098;23;19920;-80
2022/04/16 00:35:23;;;;;;;;;;;11.20;99.90;;;;;;6140676;23;19932;-79
2022/04/16 00:37:51;;;;;;;;;;;11.10;99.90;;;;;;6092385;23;19927;-80
2022/04/16 00:40:21;;;;;;;;;;;11.00;99.90;;;;;;6139447;23;20328;-80
2022/04/16 00:42:50;;;;;;;;;;;11.00;99.90;;;;;;6116356;23;20340;-80
2022/04/16 00:45:18;;;;;;;;;;;10.90;99.90;;;;;;6125313;23;19927;-80
2022/04/16 00:47:45;;;;;;;;;;;10.90;99.90;;;;;;6139149;23;20368;-79
2022/04/16 00:50:14;;;;;;;;;;;10.90;99.90;;;;;;6115653;23;19924;-79
2022/04/16 00:52:44;;;;;;;;;;;11.10;99.90;;;;;;6114643;23;20415;-80
2022/04/16 00:55:12;;;;;;;;;;;11.00;99.90;;;;;;6115392;23;20307;-80
2022/04/16 00:57:40;;;;;;;;;;;10.90;99.90;;;;;;6127064;23;19946;-80
2022/04/16 01:00:09;;;;;;;;;;;10.80;99.90;;;;;;6117363;23;19921;-81
2022/04/16 01:02:37;;;;;;;;;;;10.90;99.90;;;;;;6143851;23;19921;-80
2022/04/16 01:05:06;;;;;;;;;;;10.70;99.90;;;;;;6142559;23;19925;-81
2022/04/16 01:07:34;;;;;;;;;;;10.70;99.90;;;;;;6090851;23;19921;-81
2022/04/16 01:10:01;;;;;;;;;;;10.60;99.90;;;;;;6150394;23;19921;-81
2022/04/16 01:12:29;;;;;;;;;;;10.60;99.90;;;;;;6113887;23;19929;-80
2022/04/16 01:14:57;;;;;;;;;;;10.70;99.90;;;;;;6142214;23;19921;-80
2022/04/16 01:17:24;;;;;;;;;;;10.60;99.90;;;;;;6138707;23;19928;-80
2022/04/16 01:19:52;;;;;;;;;;;10.50;99.90;;;;;;6114258;23;19921;-81
2022/04/16 01:22:25;;;;;;;;;;;10.50;99.90;;;;;;6114085;23;19925;-81
2022/04/16 01:24:55;;;;;;;;;;;10.50;99.90;;;;;;6112524;23;19925;-81
2022/04/16 01:27:24;;;;;;;;;;;10.60;99.90;;;;;;6143083;23;19932;-81
2022/04/16 01:29:53;;;;;;;;;;;10.50;99.90;;;;;;6113414;23;20247;-80
2022/04/16 01:32:23;;;;;;;;;;;10.50;99.90;;;;;;6089951;23;19921;-80
2022/04/16 01:34:51;;;;;;;;;;;10.50;99.90;;;;;;6090010;23;19925;-82
2022/04/16 01:37:18;;;;;;;;;;;10.40;99.90;;;;;;6150762;23;19927;-81
2022/04/16 01:39:46;;;;;;;;;;;10.50;99.90;;;;;;6138689;23;19921;-80
2022/04/16 01:42:14;;;;;;;;;;;10.40;99.90;;;;;;6114606;23;19927;-81
2022/04/16 01:44:43;;;;;;;;;;;10.40;99.90;;;;;;6151350;23;19927;-82
2022/04/16 01:47:12;;;;;;;;;;;10.40;99.90;;;;;;6116200;23;19921;-80
2022/04/16 01:49:40;;;;;;;;;;;10.40;99.90;;;;;;6144682;23;19921;-80
2022/04/16 01:52:08;;;;;;;;;;;10.40;99.90;;;;;;6146899;23;20255;-81
2022/04/16 01:54:36;;;;;;;;;;;10.40;99.90;;;;;;6148766;23;19927;-80
2022/04/16 01:57:03;;;;;;;;;;;10.20;99.90;;;;;;6122763;23;19931;-80
2022/04/16 01:59:31;;;;;;;;;;;10.30;99.90;;;;;;6137512;23;19925;-80
2022/04/16 02:01:59;;;;;;;;;;;10.30;99.90;;;;;;6124551;23;19921;-80
2022/04/16 02:04:28;;;;;;;;;;;10.30;99.90;;;;;;6149529;23;19943;-80
2022/04/16 02:06:56;;;;;;;;;;;10.30;99.90;;;;;;6124200;23;19927;-81
2022/04/16 02:09:24;;;;;;;;;;;10.20;99.90;;;;;;6117181;23;19921;-79
2022/04/16 02:11:52;;;;;;;;;;;10.20;99.90;;;;;;6114389;23;19925;-79
2022/04/16 02:14:23;;;;;;;;;;;10.20;99.90;;;;;;6090710;23;19925;-80
2022/04/16 02:16:51;;;;;;;;;;;10.20;99.90;;;;;;6149666;23;19936;-81
2022/04/16 02:19:18;;;;;;;;;;;10.20;99.90;;;;;;6123638;23;19936;-80
2022/04/16 02:21:47;;;;;;;;;;;10.10;99.90;;;;;;6112994;23;20004;-81
2022/04/16 02:24:17;;;;;;;;;;;10.10;99.90;;;;;;6113786;23;19931;-80
2022/04/16 02:26:45;;;;;;;;;;;10.10;99.90;;;;;;6140371;23;19921;-79
2022/04/16 02:29:13;;;;;;;;;;;10.10;99.90;;;;;;6115047;23;19920;-81
2022/04/16 02:31:42;;;;;;;;;;;10.00;99.90;;;;;;6116127;23;19920;-80
2022/04/16 02:34:11;;;;;;;;;;;10.00;99.90;;;;;;6115604;23;19924;-80
2022/04/16 02:36:40;;;;;;;;;;;10.20;99.90;;;;;;6126380;23;19921;-80
2022/04/16 02:39:10;;;;;;;;;;;10.00;99.90;;;;;;6151289;23;19924;-80
2022/04/16 02:41:39;;;;;;;;;;;9.90;99.90;;;;;;6092548;23;19943;-80
2022/04/16 02:47:05;;;;;;;;;;;9.90;99.90;;;;;;6145440;23;19921;-81
2022/04/16 02:47:05;;;;;;;;;;;9.90;99.90;;;;;;6117395;23;19924;-81
2022/04/16 02:49:35;;;;;;;;;;;9.90;99.90;;;;;;6143054;23;20172;-81
2022/04/16 02:52:04;;;;;;;;;;;9.90;99.90;;;;;;6118004;23;19921;-81
2022/04/16 02:54:32;;;;;;;;;;;9.90;99.90;;;;;;6152482;23;19921;-79
2022/04/16 02:57:01;;;;;;;;;;;9.90;99.90;;;;;;6140915;23;19935;-81
2022/04/16 02:59:30;;;;;;;;;;;10.00;99.90;;;;;;6151754;23;19925;-82
2022/04/16 03:01:58;;;;;;;;;;;9.80;99.90;;;;;;6118991;23;19951;-81
2022/04/16 03:04:26;;;;;;;;;;;9.80;99.90;;;;;;6152791;23;19928;-81
2022/04/16 03:06:54;;;;;;;;;;;9.80;99.90;;;;;;6152851;23;19929;-80
2022/04/16 03:09:22;;;;;;;;;;;9.80;99.90;;;;;;6143236;23;19928;-80
2022/04/16 03:11:50;;;;;;;;;;;9.70;99.90;;;;;;6142599;23;19935;-80
2022/04/16 03:19:50;;;;;;;;;;;9.70;99.90;;;;;;6141674;23;19925;-80
2022/04/16 03:22:18;;;;;;;;;;;9.70;99.90;;;;;;6143803;23;19931;-80
2022/04/16 03:24:45;;;;;;;;;;;9.60;99.90;;;;;;6142374;23;19931;-81
2022/04/16 03:27:13;;;;;;;;;;;9.60;99.90;;;;;;6114813;23;19932;-81
2022/04/16 03:29:41;;;;;;;;;;;9.60;99.90;;;;;;6142290;23;19931;-80
2022/04/16 03:32:09;;;;;;;;;;;9.60;99.90;;;;;;6139773;23;19921;-79
2022/04/16 03:34:37;;;;;;;;;;;9.60;99.90;;;;;;6125957;23;19927;-81
2022/04/16 03:37:05;;;;;;;;;;;9.60;99.90;;;;;;6093730;23;19928;-80
2022/04/16 03:39:34;;;;;;;;;;;9.50;99.90;;;;;;6143602;23;19927;-81
2022/04/16 03:42:03;;;;;;;;;;;9.60;99.90;;;;;;6115003;23;19921;-81
2022/04/16 03:44:30;;;;;;;;;;;9.50;99.90;;;;;;6115274;23;19924;-80
2022/04/16 03:46:58;;;;;;;;;;;9.50;99.90;;;;;;6151939;23;19943;-80
2022/04/16 03:49:25;;;;;;;;;;;9.50;99.90;;;;;;6150331;23;19925;-80
2022/04/16 03:51:53;;;;;;;;;;;9.50;99.90;;;;;;6121387;23;19921;-80
2022/04/16 03:59:59;;;;;;;;;;;9.50;99.90;;;;;;6111168;23;19935;-80
2022/04/16 04:02:30;;;;;;;;;;;9.50;99.90;;;;;;6150552;23;19921;-80
2022/04/16 04:04:58;;;;;;;;;;;9.50;99.90;;;;;;6115107;23;19921;-81
2022/04/16 04:07:26;;;;;;;;;;;9.40;99.90;;;;;;6151423;23;19940;-80
2022/04/16 04:09:53;;;;;;;;;;;9.40;99.90;;;;;;6153586;23;19921;-81
2022/04/16 04:12:21;;;;;;;;;;;9.40;99.90;;;;;;6141955;23;19935;-81
2022/04/16 04:14:48;;;;;;;;;;;9.40;99.90;;;;;;6150202;23;19947;-80
2022/04/16 04:17:16;;;;;;;;;;;9.40;99.90;;;;;;6114988;23;19921;-80
2022/04/16 04:19:46;;;;;;;;;;;9.30;99.90;;;;;;6150717;23;19921;-80
2022/04/16 04:22:15;;;;;;;;;;;9.30;99.90;;;;;;6092546;23;19921;-80
2022/04/16 04:24:43;;;;;;;;;;;9.30;99.90;;;;;;6146916;23;19921;-81
2022/04/16 04:27:12;;;;;;;;;;;9.40;99.90;;;;;;6115787;23;19925;-80
2022/04/16 04:29:39;;;;;;;;;;;9.30;99.90;;;;;;6149044;23;19931;-80
2022/04/16 04:32:08;;;;;;;;;;;9.40;99.90;;;;;;6125043;23;19921;-80
2022/04/16 04:34:36;;;;;;;;;;;9.30;99.90;;;;;;6140259;23;19921;-81
2022/04/16 04:37:05;;;;;;;;;;;9.20;99.90;;;;;;6141029;23;19931;-80
2022/04/16 04:39:33;;;;;;;;;;;9.30;99.90;;;;;;6141813;23;19928;-80
2022/04/16 04:42:01;;;;;;;;;;;9.10;99.90;;;;;;6138703;23;19956;-80
2022/04/16 04:44:29;;;;;;;;;;;9.10;99.90;;;;;;6140657;23;19925;-81
2022/04/16 04:46:57;;;;;;;;;;;10.00;99.90;;;;;;6125769;23;19925;-80
2022/04/16 04:49:25;;;;;;;;;;;9.10;99.90;;;;;;6143813;23;19925;-81
2022/04/16 04:51:53;;;;;;;;;;;9.00;99.90;;;;;;6139278;23;19927;-80
2022/04/16 04:54:21;;;;;;;;;;;9.20;99.90;;;;;;6143149;23;19935;-80
2022/04/16 04:56:49;;;;;;;;;;;9.00;99.90;;;;;;6143076;23;19921;-81
2022/04/16 04:59:17;;;;;;;;;;;9.10;99.90;;;;;;6115028;23;19920;-81
2022/04/16 05:01:45;;;;;;;;;;;9.00;99.90;;;;;;6144188;23;20140;-80
2022/04/16 05:04:13;;;;;;;;;;;9.00;99.90;;;;;;6092426;23;19927;-82
2022/04/16 05:06:41;;;;;;;;;;;9.60;99.90;;;;;;6117996;23;19943;-80
2022/04/16 05:09:10;;;;;;;;;;;8.90;99.90;;;;;;6141174;23;19931;-81
2022/04/16 05:11:37;;;;;;;;;;;8.90;99.90;;;;;;6151679;23;19921;-80
2022/04/16 05:14:09;;;;;;;;;;;9.00;99.90;;;;;;6150922;23;19921;-80
2022/04/16 05:16:37;;;;;;;;;;;8.90;99.90;;;;;;6149853;23;19921;-80
2022/04/16 05:19:05;;;;;;;;;;;8.90;99.90;;;;;;6139720;23;19931;-80
2022/04/16 05:21:32;;;;;;;;;;;8.90;99.90;;;;;;6118473;23;19928;-79
2022/04/16 05:24:00;;;;;;;;;;;8.90;99.90;;;;;;6119024;23;19925;-80
2022/04/16 05:26:28;;;;;;;;;;;8.90;99.90;;;;;;6117049;23;20378;-80
2022/04/16 05:28:56;;;;;;;;;;;8.90;99.90;;;;;;6149570;23;20254;-80
2022/04/16 05:31:26;;;;;;;;;;;8.70;99.90;;;;;;6126462;23;19927;-80
2022/04/16 05:36:42;;;;;;;;;;;9.00;99.90;;;;;;6115799;23;19921;-80
2022/04/16 05:39:10;;;;;;;;;;;9.30;99.90;;;;;;6142681;23;19925;-80
2022/04/16 05:41:37;;;;;;;;;;;9.00;99.90;;;;;;6116481;23;19928;-80
2022/04/16 05:44:05;;;;;;;;;;;9.10;99.90;;;;;;6149725;23;19939;-80
2022/04/16 05:46:33;;;;;;;;;;;9.20;99.90;;;;;;6150856;23;19920;-80
2022/04/16 05:49:02;;;;;;;;;;;9.10;99.90;;;;;;6151194;23;19927;-80
2022/04/16 05:51:30;;;;;;;;;;;9.20;99.90;;;;;;6114271;23;19927;-80
2022/04/16 05:54:00;;;;;;;;;;;9.30;99.90;;;;;;6115309;23;19921;-80
2022/04/16 05:56:28;;;;;;;;;;;9.30;99.90;;;;;;6114757;23;19931;-80
2022/04/16 05:58:55;;;;;;;;;;;9.40;99.90;;;;;;6115782;23;19935;-80
2022/04/16 06:01:23;;;;;;;;;;;9.60;99.90;;;;;;6141853;23;19920;-80
2022/04/16 06:03:52;;;;;;;;;;;9.50;99.90;;;;;;6115408;23;19927;-80
2022/04/16 06:06:19;;;;;;;;;;;9.40;99.90;;;;;;6142526;23;19921;-80
2022/04/16 06:08:51;;;;;;;;;;;9.50;99.90;;;;;;6145230;23;19925;-80
2022/04/16 06:11:20;;;;;;;;;;;9.50;99.90;;;;;;6143454;23;19925;-80
2022/04/16 06:13:48;;;;;;;;;;;9.60;99.90;;;;;;6153115;23;19927;-80
2022/04/16 06:16:15;;;;;;;;;;;9.80;99.90;;;;;;6141418;23;19931;-80
2022/04/16 06:18:43;;;;;;;;;;;9.80;99.90;;;;;;6153386;23;19921;-80
2022/04/16 06:21:12;;;;;;;;;;;8.80;99.90;;;;;;6117013;23;19935;-80
2022/04/16 06:23:40;;;;;;;;;;;9.80;99.90;;;;;;6092607;23;20238;-80
2022/04/16 06:26:09;;;;;;;;;;;9.90;99.90;;;;;;6153822;23;20132;-81
2022/04/16 06:28:40;;;;;;;;;;;10.00;99.90;;;;;;6151994;23;19921;-81
2022/04/16 06:31:08;;;;;;;;;;;10.00;99.90;;;;;;6141923;23;20332;-80
2022/04/16 06:33:35;;;;;;;;;;;10.10;99.90;;;;;;6145291;23;19931;-80
2022/04/16 06:36:05;;;;;;;;;;;10.10;99.90;;;;;;6117027;23;19929;-80
2022/04/16 06:38:36;;;;;;;;;;;10.30;99.90;;;;;;6119655;23;19931;-81
2022/04/16 06:41:04;;;;;;;;;;;10.20;99.90;;;;;;6126921;23;19932;-80
2022/04/16 06:43:32;;;;;;;;;;;10.60;99.90;;;;;;6117192;23;19927;-80
2022/04/16 06:46:02;;;;;;;;;;;10.40;99.90;;;;;;6124585;23;19924;-81
2022/04/16 06:48:30;;;;;;;;;;;10.40;99.90;;;;;;6113930;23;19921;-80
2022/04/16 06:50:58;;;;;;;;;;;10.10;99.90;;;;;;6138847;23;19931;-80
2022/04/16 06:53:27;;;;;;;;;;;11.90;99.90;;;;;;6116218;23;19921;-80
2022/04/16 06:56:00;;;;;;;;;;;10.60;99.90;;;;;;6118764;23;20125;-81
2022/04/16 06:58:51;;;;;;;;;;;10.00;99.90;;;;;;6142032;23;19931;-80
2022/04/16 07:01:19;;;;;;;;;;;10.70;99.90;;;;;;6151857;23;19921;-81
2022/04/16 07:03:47;;;;;;;;;;;10.70;99.90;;;;;;6093683;23;19920;-81
2022/04/16 07:06:15;;;;;;;;;;;10.90;99.90;;;;;;6141113;23;19921;-80
2022/04/16 07:08:43;;;;;;;;;;;10.90;99.90;;;;;;6144042;23;19924;-81
2022/04/16 07:11:11;;;;;;;;;;;10.90;99.90;;;;;;6155385;23;20253;-81
2022/04/16 07:13:39;;;;;;;;;;;11.00;99.90;;;;;;6117516;23;19920;-80
2022/04/16 07:16:07;;;;;;;;;;;11.10;99.90;;;;;;6120564;23;19935;-81
2022/04/16 07:18:34;;;;;;;;;;;11.10;99.90;;;;;;6147174;23;19920;-82
2022/04/16 07:21:02;;;;;;;;;;;11.20;99.90;;;;;;6120977;23;19921;-81
2022/04/16 07:23:30;;;;;;;;;;;10.30;99.90;;;;;;6121784;23;19920;-82
2022/04/16 07:25:58;;;;;;;;;;;11.20;99.90;;;;;;6117874;23;19921;-81
2022/04/16 07:28:25;;;;;;;;;;;11.30;99.90;;;;;;6146590;23;19924;-81
2022/04/16 07:30:53;;;;;;;;;;;11.40;99.90;;;;;;6119957;23;19925;-81
2022/04/16 07:33:22;;;;;;;;;;;11.50;99.90;;;;;;6120793;23;19921;-81
2022/04/16 07:35:51;;;;;;;;;;;11.60;99.90;;;;;;6117584;23;19924;-80
2022/04/16 07:38:20;;;;;;;;;;;11.70;99.90;;;;;;6143405;23;19921;-80
2022/04/16 07:40:47;;;;;;;;;;;11.70;99.90;;;;;;6127123;23;20358;-81
2022/04/16 07:43:15;;;;;;;;;;;11.80;99.90;;;;;;6142149;23;20167;-80
2022/04/16 07:45:44;;;;;;;;;;;11.80;99.90;;;;;;6116579;23;20339;-81
2022/04/16 07:48:12;;;;;;;;;;;11.90;99.90;;;;;;6116094;23;19931;-80
2022/04/16 07:50:39;;;;;;;;;;;12.00;99.90;;;;;;6126345;23;19921;-81
2022/04/16 07:53:07;;;;;;;;;;;11.90;99.90;;;;;;6151335;23;19943;-80
2022/04/16 07:55:35;;;;;;;;;;;12.00;99.90;;;;;;6116201;23;19931;-81
2022/04/16 07:58:03;;;;;;;;;;;12.00;99.90;;;;;;6151106;23;19940;-80
2022/04/16 08:00:30;;;;;;;;;;;12.00;99.90;;;;;;6115374;23;19925;-81
2022/04/16 08:02:59;;;;;;;;;;;12.20;99.90;;;;;;6144817;23;20170;-81
2022/04/16 08:05:26;;;;;;;;;;;12.20;99.90;;;;;;6117026;23;20247;-81
2022/04/16 08:07:55;;;;;;;;;;;12.30;99.90;;;;;;6146702;23;20340;-79
2022/04/16 08:10:23;;;;;;;;;;;12.20;99.90;;;;;;6144052;23;19927;-81
2022/04/16 08:12:50;;;;;;;;;;;12.30;99.90;;;;;;6127639;23;19925;-81
2022/04/16 08:15:18;;;;;;;;;;;12.40;99.90;;;;;;6142260;23;20095;-81
2022/04/16 08:17:46;;;;;;;;;;;12.40;99.90;;;;;;6140235;23;19921;-81
2022/04/16 08:20:14;;;;;;;;;;;12.80;99.90;;;;;;6140462;23;19928;-81
2022/04/16 08:22:46;;;;;;;;;;;12.60;99.90;;;;;;6115550;23;19921;-82
2022/04/16 08:27:52;;;;;;;;;;;12.60;99.90;;;;;;6118492;23;19925;-81
2022/04/16 08:30:19;;;;;;;;;;;12.60;99.90;;;;;;6150207;23;19921;-81
2022/04/16 08:32:47;;;;;;;;;;;12.70;99.90;;;;;;6091718;23;19925;-80
2022/04/16 08:35:16;;;;;;;;;;;12.70;99.90;;;;;;6117246;23;19927;-80
2022/04/16 08:37:43;;;;;;;;;;;12.90;99.90;;;;;;6115790;23;19925;-80
2022/04/16 08:40:12;;;;;;;;;;;12.90;99.90;;;;;;6151380;23;19931;-81
2022/04/16 08:42:40;;;;;;;;;;;12.80;99.90;;;;;;6151153;23;19932;-81
2022/04/16 08:45:09;;;;;;;;;;;13.00;99.90;;;;;;6115095;23;20058;-80
2022/04/16 08:47:38;;;;;;;;;;;13.00;99.90;;;;;;6115856;23;19925;-81
2022/04/16 08:50:07;;;;;;;;;;;13.10;99.90;;;;;;6138455;23;19940;-79
2022/04/16 08:52:37;;;;;;;;;;;12.50;99.90;;;;;;6116623;23;19935;-81
2022/04/16 08:55:06;;;;;;;;;;;13.10;99.90;;;;;;6126654;23;19920;-81
2022/04/16 08:57:33;;;;;;;;;;;13.20;99.90;;;;;;6143555;23;19931;-80
2022/04/16 09:00:01;;;;;;;;;;;13.30;99.90;;;;;;6115783;23;19927;-81
2022/04/16 09:02:33;;;;;;;;;;;13.30;99.90;;;;;;6141658;23;19921;-80
2022/04/16 09:05:03;;;;;;;;;;;13.40;99.90;;;;;;6120763;23;19925;-81
2022/04/16 09:07:42;;;;;;;;;;;13.50;99.90;;;;;;6140958;23;19925;-80
2022/04/16 09:10:10;;;;;;;;;;;13.60;99.90;;;;;;6116249;23;19931;-81
2022/04/16 09:12:39;;;;;;;;;;;14.70;99.90;;;;;;6116365;23;20366;-81
2022/04/16 09:15:10;;;;;;;;;;;13.80;99.90;;;;;;6142720;23;19927;-81
2022/04/16 09:17:38;;;;;;;;;;;13.90;99.90;;;;;;6152300;23;19924;-81
2022/04/16 09:20:13;;;;;;;;;;;14.00;99.90;;;;;;6116390;23;19921;-81
2022/04/16 09:22:49;;;;;;;;;;;14.00;99.90;;;;;;6120335;23;19921;-80
2022/04/16 09:25:18;;;;;;;;;;;14.10;99.90;;;;;;6110849;23;19921;-81
2022/04/16 09:27:46;;;;;;;;;;;14.10;99.90;;;;;;6122291;23;20395;-81
2022/04/16 09:30:25;;;;;;;;;;;14.60;99.90;;;;;;6123531;23;19921;-81
2022/04/16 09:32:55;;;;;;;;;;;14.40;99.90;;;;;;6122010;23;19921;-81
2022/04/16 09:35:25;;;;;;;;;;;14.60;99.90;;;;;;6123011;23;19921;-79
2022/04/16 09:38:12;;;;;;;;;;;14.30;99.90;;;;;;6105992;23;19921;-80
2022/04/16 09:40:41;;;;;;;;;;;14.40;99.90;;;;;;6063345;23;19928;-80
2022/04/16 09:43:10;;;;;;;;;;;14.50;99.90;;;;;;6096886;23;19921;-81
2022/04/16 09:45:38;;;;;;;;;;;14.60;99.90;;;;;;6120121;23;19925;-80
2022/04/16 09:48:08;;;;;;;;;;;14.70;99.90;;;;;;6063088;23;20280;-81
2022/04/16 09:50:37;;;;;;;;;;;15.40;99.90;;;;;;6110857;23;19925;-81
2022/04/16 09:53:05;;;;;;;;;;;14.80;99.90;;;;;;6086411;23;19921;-81
2022/04/16 09:55:33;;;;;;;;;;;15.00;99.90;;;;;;6111313;23;19928;-81
2022/04/16 09:58:03;;;;;;;;;;;14.90;99.90;;;;;;6087782;23;19936;-81
2022/04/16 10:00:36;;;;;;;;;;;15.00;99.90;;;;;;6114841;23;19925;-81
2022/04/16 10:03:25;;;;;;;;;;;15.10;99.90;;;;;;6116843;23;19931;-81
2022/04/16 10:05:57;;;;;;;;;;;15.20;99.90;;;;;;6087821;23;19921;-81
2022/04/16 10:08:25;;;;;;;;;;;15.20;99.90;;;;;;6097601;23;19925;-81
2022/04/16 10:10:55;;;;;;;;;;;15.30;99.90;;;;;;6121264;23;19921;-81
2022/04/16 10:13:24;;;;;;;;;;;15.30;99.90;;;;;;6113850;23;19921;-81
2022/04/16 10:15:55;;;;;;;;;;;15.40;99.90;;;;;;6089008;23;19921;-81
2022/04/16 10:18:27;;;;;;;;;;;15.40;99.90;;;;;;6095968;23;19925;-81
2022/04/16 10:20:57;;;;;;;;;;;15.50;99.90;;;;;;6120403;23;19925;-81
2022/04/16 10:23:27;;;;;;;;;;;15.60;99.90;;;;;;6120791;23;19931;-80
2022/04/16 10:26:02;;;;;;;;;;;15.90;99.90;;;;;;6142951;23;19921;-81
2022/04/16 10:28:38;;;;;;;;;;;15.70;99.90;;;;;;6114478;23;19927;-81
2022/04/16 10:31:06;;;;;;;;;;;15.80;99.90;;;;;;6124707;23;19925;-82
2022/04/16 10:33:33;;;;;;;;;;;15.30;99.90;;;;;;6139687;23;19928;-81
2022/04/16 10:36:05;;;;;;;;;;;16.00;99.90;;;;;;6119253;23;19925;-81
2022/04/16 10:38:34;;;;;;;;;;;16.10;99.90;;;;;;6140611;23;19921;-81
2022/04/16 10:41:18;;;;;;;;;;;16.20;99.90;;;;;;6118523;23;19921;-81
2022/04/16 10:44:01;;;;;;;;;;;16.20;99.90;;;;;;6143141;23;19931;-82
2022/04/16 10:46:44;;;;;;;;;;;16.40;99.90;;;;;;6091881;23;19932;-80
2022/04/16 10:49:12;;;;;;;;;;;16.40;99.90;;;;;;6140691;23;19927;-82
2022/04/16 10:51:40;;;;;;;;;;;16.50;99.90;;;;;;6119553;23;19931;-82
2022/04/16 10:54:09;;;;;;;;;;;16.60;99.90;;;;;;6119391;23;20332;-82
2022/04/16 10:56:39;;;;;;;;;;;16.70;99.90;;;;;;6119428;23;19936;-81
2022/04/16 10:59:08;;;;;;;;;;;16.80;99.90;;;;;;6118163;23;19925;-81
2022/04/16 11:01:37;;;;;;;;;;;16.80;99.90;;;;;;6118414;23;19940;-82
2022/04/16 11:04:15;;;;;;;;;;;17.10;99.90;;;;;;6118453;23;19928;-82
2022/04/16 11:06:48;;;;;;;;;;;17.00;99.90;;;;;;6117906;23;19940;-81
2022/04/16 11:09:20;;;;;;;;;;;17.10;99.90;;;;;;6118503;23;19925;-81
2022/04/16 11:11:51;;;;;;;;;;;17.30;99.90;;;;;;6144923;23;19925;-79
2022/04/16 11:14:23;;;;;;;;;;;17.40;99.20;;;;;;6119011;23;19921;-81
2022/04/16 11:16:52;;;;;;;;;;;17.50;99.60;;;;;;6117889;23;19921;-80
2022/04/16 11:19:20;;;;;;;;;;;17.90;99.50;;;;;;6128181;23;19925;-81
2022/04/16 11:21:49;;;;;;;;;;;17.60;99.50;;;;;;6121559;23;19944;-81
2022/04/16 11:24:18;;;;;;;;;;;17.70;99.60;;;;;;6070023;23;20347;-81
2022/04/16 11:35:13;;;;;;;;;;;18.10;98.00;;;;;;6124408;23;19921;-81
2022/04/16 11:37:41;;;;;;;;;;;18.40;98.10;;;;;;6117878;23;19936;-83
2022/04/16 11:40:09;;;;;;;;;;;18.30;97.90;;;;;;6118712;23;19920;-81
2022/04/16 11:42:44;;;;;;;;;;;18.30;98.40;;;;;;6115307;23;19921;-82
2022/04/16 11:45:15;;;;;;;;;;;18.40;98.00;;;;;;6094760;23;19921;-82
2022/04/16 11:47:48;;;;;;;;;;;17.30;97.30;;;;;;6144400;23;19920;-82
2022/04/16 11:50:16;;;;;;;;;;;17.30;97.10;;;;;;6155460;23;19935;-82
2022/04/16 11:52:49;;;;;;;;;;;18.70;97.40;;;;;;6117753;23;20340;-81
2022/04/16 11:55:19;;;;;;;;;;;18.60;97.70;;;;;;6143858;23;19931;-80
2022/04/16 11:57:52;;;;;;;;;;;18.60;97.20;;;;;;6120743;23;19928;-81
2022/04/16 12:00:21;;;;;;;;;;;18.40;97.10;;;;;;6143349;23;19927;-81
2022/04/16 12:02:59;;;;;;;;;;;18.40;97.60;;;;;;6095230;23;19921;-81
2022/04/16 12:05:28;;;;;;;;;;;18.30;97.70;;;;;;6153580;23;19927;-82
2022/04/16 12:07:57;;;;;;;;;;;17.20;97.70;;;;;;6141106;23;19928;-82
2022/04/16 12:10:25;;;;;;;;;;;17.80;97.90;;;;;;6142714;23;19927;-83
2022/04/16 12:12:54;;;;;;;;;;;18.20;98.20;;;;;;6096908;23;19935;-80
2022/04/16 12:15:24;;;;;;;;;;;18.20;98.30;;;;;;6130338;23;19927;-81
2022/04/16 12:17:53;;;;;;;;;;;18.40;98.20;;;;;;6127653;23;19937;-82
2022/04/16 12:20:22;;;;;;;;;;;18.50;97.60;;;;;;6128483;23;19924;-80
2022/04/16 12:22:54;;;;;;;;;;;18.60;97.80;;;;;;6117597;23;19921;-81
2022/04/16 12:25:29;;;;;;;;;;;18.60;97.50;;;;;;6143384;23;19932;-81
2022/04/16 12:27:58;;;;;;;;;;;18.70;97.70;;;;;;6146548;23;19921;-81
2022/04/16 12:30:32;;;;;;;;;;;18.80;97.20;;;;;;6144923;23;19921;-80
2022/04/16 12:33:02;;;;;;;;;;;18.80;96.90;;;;;;6115119;23;19921;-80
2022/04/16 12:35:35;;;;;;;;;;;18.80;96.60;;;;;;6141650;23;19921;-82
2022/04/16 12:38:03;;;;;;;;;;;18.70;96.80;;;;;;6117298;23;19920;-81
2022/04/16 12:40:33;;;;;;;;;;;18.70;97.20;;;;;;6116671;23;20223;-82
2022/04/16 12:43:01;;;;;;;;;;;18.70;97.10;;;;;;6118439;23;19925;-82
2022/04/16 12:45:32;;;;;;;;;;;18.70;96.70;;;;;;6142539;23;19925;-81
2022/04/16 12:48:00;;;;;;;;;;;19.80;97.10;;;;;;6152748;23;19921;-82
2022/04/16 12:50:31;;;;;;;;;;;18.80;97.00;;;;;;6118814;23;19924;-82
2022/04/16 12:52:59;;;;;;;;;;;18.80;97.00;;;;;;6118968;23;19925;-81
2022/04/16 12:55:35;;;;;;;;;;;18.70;97.00;;;;;;6145073;23;19928;-81
2022/04/16 12:58:06;;;;;;;;;;;18.70;96.60;;;;;;6144894;23;19925;-82
2022/04/16 13:00:34;;;;;;;;;;;18.00;96.30;;;;;;6144485;23;19921;-81
2022/04/16 13:03:02;;;;;;;;;;;18.60;96.40;;;;;;6116603;23;19925;-82
2022/04/16 13:05:32;;;;;;;;;;;18.90;96.70;;;;;;6153357;23;19909;-82
2022/04/16 13:08:08;;;;;;;;;;;20.00;96.40;;;;;;6143548;23;20147;-81
2022/04/16 13:10:37;;;;;;;;;;;18.90;96.10;;;;;;6145167;23;20255;-81
2022/04/16 13:13:06;;;;;;;;;;;19.00;95.90;;;;;;6141340;23;19940;-81
2022/04/16 13:15:34;;;;;;;;;;;19.10;95.80;;;;;;6126633;23;19920;-82
2022/04/16 13:18:05;;;;;;;;;;;19.10;95.70;;;;;;6126884;23;19939;-81
2022/04/16 13:20:33;;;;;;;;;;;19.30;95.50;;;;;;6144016;23;19931;-81
2022/04/16 13:23:02;;;;;;;;;;;19.30;95.70;;;;;;6118386;23;19931;-81
2022/04/16 13:25:33;;;;;;;;;;;19.40;95.40;;;;;;6119764;23;19921;-81
2022/04/16 13:28:01;;;;;;;;;;;19.50;95.60;;;;;;6119312;23;19925;-81
2022/04/16 13:30:28;;;;;;;;;;;19.60;95.60;;;;;;6144102;23;19925;-81
2022/04/16 13:32:57;;;;;;;;;;;19.70;95.10;;;;;;6119901;23;19928;-81
2022/04/16 13:35:27;;;;;;;;;;;19.90;95.60;;;;;;6119588;23;19927;-82
2022/04/16 13:37:57;;;;;;;;;;;20.10;94.90;;;;;;6119940;23;19924;-82
2022/04/16 13:43:13;;;;;;;;;;;20.40;94.10;;;;;;6141277;23;20256;-81
2022/04/16 13:45:41;;;;;;;;;;;20.40;93.90;;;;;;6091869;23;19925;-81
2022/04/16 13:48:09;;;;;;;;;;;20.50;94.00;;;;;;6118145;23;19928;-82
2022/04/16 13:50:37;;;;;;;;;;;20.80;93.70;;;;;;6153613;23;19925;-82
2022/04/16 13:53:05;;;;;;;;;;;20.90;93.70;;;;;;6144626;23;19927;-82
2022/04/16 13:55:34;;;;;;;;;;;21.00;94.00;;;;;;6146466;23;20177;-82
2022/04/16 13:58:02;;;;;;;;;;;21.10;93.20;;;;;;6146567;23;19921;-81
2022/04/16 14:00:31;;;;;;;;;;;21.40;93.50;;;;;;6141635;23;19921;-82
2022/04/16 14:03:00;;;;;;;;;;;21.70;92.70;;;;;;6144155;23;19924;-82
2022/04/16 14:05:44;;;;;;;;;;;22.00;92.00;;;;;;6145296;23;19925;-81
2022/04/16 14:08:15;;;;;;;;;;;22.10;92.40;;;;;;6144241;23;19921;-81
2022/04/16 14:10:43;;;;;;;;;;;22.30;91.80;;;;;;6152287;23;20202;-81
2022/04/16 14:13:11;;;;;;;;;;;22.50;91.10;;;;;;6118693;23;19928;-81
2022/04/16 14:15:44;;;;;;;;;;;22.60;91.10;;;;;;6129315;23;19924;-82
2022/04/16 14:18:12;;;;;;;;;;;22.70;90.60;;;;;;6121833;23;19927;-82
2022/04/16 14:20:41;;;;;;;;;;;22.80;91.00;;;;;;6120790;23;19925;-82
2022/04/16 14:23:09;;;;;;;;;;;22.90;91.10;;;;;;6118562;23;19925;-81
2022/04/16 14:25:38;;;;;;;;;;;23.00;90.30;;;;;;6119913;23;20252;-83
2022/04/16 14:28:07;;;;;;;;;;;23.10;90.10;;;;;;6146437;23;19921;-82
2022/04/16 14:30:39;;;;;;;;;;;23.00;88.90;;;;;;6146961;23;20024;-82
2022/04/16 14:33:07;;;;;;;;;;;23.10;89.30;;;;;;6158884;23;19932;-81
2022/04/16 14:35:34;;;;;;;;;;;23.20;89.30;;;;;;6157485;23;19925;-82
2022/04/16 14:38:10;;;;;;;;;;;23.40;90.00;;;;;;6121962;23;19921;-82
2022/04/16 14:40:39;;;;;;;;;;;23.60;87.00;;;;;;6144852;23;19931;-82
2022/04/16 14:43:09;;;;;;;;;;;23.70;88.00;;;;;;6119907;23;19927;-82
2022/04/16 14:45:39;;;;;;;;;;;23.80;86.90;;;;;;6153304;23;19921;-82
2022/04/16 14:48:08;;;;;;;;;;;24.20;87.10;;;;;;6119158;23;20332;-82
2022/04/16 14:50:37;;;;;;;;;;;24.00;86.30;;;;;;6153163;23;19927;-82
2022/04/16 14:53:08;;;;;;;;;;;24.10;87.40;;;;;;6119807;23;19924;-82
2022/04/16 14:55:36;;;;;;;;;;;23.70;84.90;;;;;;6119490;23;19920;-81
2022/04/16 14:58:09;;;;;;;;;;;24.00;85.30;;;;;;6144550;23;20308;-82
2022/04/16 15:00:37;;;;;;;;;;;23.60;84.80;;;;;;6146229;23;19931;-82